createdAt,value
2022-10-05T00:00:56.836Z,8.84
2022-10-05T00:03:37.786Z,8.77
2022-10-05T00:06:05.777Z,8.74
2022-10-05T00:08:35.290Z,8.77
2022-10-05T00:11:09.093Z,8.64
2022-10-05T00:13:37.209Z,8.63
2022-10-05T00:16:10.911Z,8.69
2022-10-05T00:18:40.031Z,8.70
2022-10-05T00:21:24.690Z,8.73
2022-10-05T00:23:56.244Z,8.69
2022-10-05T00:26:27.315Z,8.70
2022-10-05T00:28:55.356Z,8.72
2022-10-05T00:31:30.163Z,8.67
2022-10-05T00:33:58.260Z,8.67
2022-10-05T00:36:26.335Z,8.67
2022-10-05T00:38:54.467Z,8.74
2022-10-05T00:41:24.163Z,8.75
2022-10-05T00:43:57.640Z,8.76
2022-10-05T00:46:54.943Z,8.72
2022-10-05T00:49:22.612Z,8.61
2022-10-05T00:52:23.752Z,8.55
2022-10-05T00:55:18.386Z,8.49
2022-10-05T00:58:27.867Z,8.47
2022-10-05T01:01:16.679Z,8.52
2022-10-05T01:03:52.992Z,8.62
2022-10-05T01:07:04.762Z,8.57
2022-10-05T01:09:52.861Z,8.53
2022-10-05T01:12:47.487Z,8.51
2022-10-05T01:16:04.291Z,8.29
2022-10-05T01:18:49.291Z,8.22
2022-10-05T01:21:23.683Z,8.39
2022-10-05T01:24:31.902Z,8.43
2022-10-05T01:27:16.029Z,8.37
2022-10-05T01:30:13.542Z,8.41
2022-10-05T01:32:48.392Z,8.27
2022-10-05T01:35:31.115Z,8.19
2022-10-05T01:38:07.822Z,8.11
2022-10-05T01:41:13.266Z,8.14
2022-10-05T01:44:12.040Z,8.19
2022-10-05T01:46:50.488Z,8.19
2022-10-05T01:49:32.321Z,8.24
2022-10-05T01:52:24.565Z,8.31
2022-10-05T01:55:20.694Z,8.59
2022-10-05T01:58:13.739Z,8.52
2022-10-05T02:01:04.446Z,8.34
2022-10-05T02:03:56.848Z,8.27
2022-10-05T02:06:30.093Z,8.40
2022-10-05T02:09:30.338Z,8.49
2022-10-05T02:12:05.418Z,8.57
2022-10-05T02:14:43.365Z,8.62
2022-10-05T02:17:18.226Z,8.72
2022-10-05T02:19:51.493Z,8.76
2022-10-05T02:22:36.973Z,8.69
2022-10-05T02:25:17.548Z,8.62
2022-10-05T02:28:27.084Z,8.56
2022-10-05T02:31:09.836Z,8.46
2022-10-05T02:33:38.094Z,8.37
2022-10-05T02:36:18.364Z,8.34
2022-10-05T02:39:52.464Z,8.22
2022-10-05T02:43:00.086Z,8.06
2022-10-05T02:45:48.086Z,7.95
2022-10-05T02:48:56.235Z,7.91
2022-10-05T02:51:32.538Z,7.88
2022-10-05T02:54:35.066Z,7.82
2022-10-05T02:58:09.800Z,7.74
2022-10-05T03:00:50.116Z,7.79
2022-10-05T03:03:58.373Z,7.79
2022-10-05T03:06:37.724Z,7.86
2022-10-05T03:09:07.986Z,7.79
2022-10-05T03:12:05.126Z,7.73
2022-10-05T03:15:50.788Z,7.61
2022-10-05T03:18:57.169Z,7.62
2022-10-05T03:21:55.154Z,7.57
2022-10-05T03:25:13.546Z,7.60
2022-10-05T03:27:54.452Z,7.68
2022-10-05T03:30:25.784Z,7.69
2022-10-05T03:33:06.623Z,7.66
2022-10-05T03:36:22.092Z,7.60
2022-10-05T03:39:11.176Z,7.53
2022-10-05T03:42:17.337Z,7.44
2022-10-05T03:45:05.805Z,7.44
2022-10-05T03:47:40.509Z,7.53
2022-10-05T03:51:04.191Z,7.45
2022-10-05T03:53:42.995Z,7.47
2022-10-05T03:56:27.637Z,7.44
2022-10-05T03:59:35.235Z,7.38
2022-10-05T04:02:13.226Z,7.35
2022-10-05T04:05:10.256Z,7.36
2022-10-05T04:07:51.194Z,7.35
2022-10-05T04:10:41.793Z,7.34
2022-10-05T04:13:22.355Z,7.35
2022-10-05T04:16:21.509Z,7.53
2022-10-05T04:19:22.151Z,7.59
2022-10-05T04:22:12.570Z,7.66
2022-10-05T04:25:00.826Z,7.68
2022-10-05T04:27:45.477Z,7.71
2022-10-05T04:30:18.026Z,7.75
2022-10-05T04:32:57.721Z,7.79
2022-10-05T04:36:11.647Z,7.75
2022-10-05T04:39:28.409Z,7.82
2022-10-05T04:42:28.291Z,7.75
2022-10-05T04:45:38.030Z,7.80
2022-10-05T04:49:10.875Z,7.85
2022-10-05T04:51:51.019Z,7.89
2022-10-05T04:54:34.074Z,7.92
2022-10-05T04:57:33.113Z,7.97
2022-10-05T05:00:23.930Z,7.90
2022-10-05T05:03:24.271Z,7.96
2022-10-05T05:06:21.815Z,7.99
2022-10-05T05:09:16.945Z,7.97
2022-10-05T05:11:57.027Z,7.93
2022-10-05T05:14:52.745Z,7.86
2022-10-05T05:17:32.624Z,7.95
2022-10-05T05:20:23.421Z,7.95
2022-10-05T05:23:40.916Z,7.91
2022-10-05T05:26:58.673Z,7.88
2022-10-05T05:29:40.133Z,7.87
2022-10-05T05:32:51.030Z,7.92
2022-10-05T05:35:34.911Z,7.90
2022-10-05T05:38:23.945Z,7.86
2022-10-05T05:41:29.309Z,7.83
2022-10-05T05:44:05.997Z,7.78
2022-10-05T05:50:20.269Z,7.76
2022-10-05T05:53:01.534Z,7.69
2022-10-05T05:55:42.656Z,7.74
2022-10-05T05:58:25.778Z,7.69
2022-10-05T06:01:33.669Z,7.68
2022-10-05T06:04:21.558Z,7.70
2022-10-05T06:06:53.418Z,7.63
2022-10-05T06:09:38.314Z,7.68
2022-10-05T06:12:30.238Z,7.77
2022-10-05T06:15:23.690Z,7.84
2022-10-05T06:17:56.592Z,7.83
2022-10-05T06:20:40.705Z,7.89
2022-10-05T06:23:33.193Z,7.84
2022-10-05T06:26:26.194Z,7.92
2022-10-05T06:29:05.853Z,7.98
2022-10-05T06:31:49.977Z,8.07
2022-10-05T06:34:42.827Z,8.12
2022-10-05T06:37:29.012Z,8.27
2022-10-05T06:40:18.647Z,8.31
2022-10-05T06:42:49.311Z,8.36
2022-10-05T06:45:35.279Z,8.40
2022-10-05T06:48:49.353Z,8.42
2022-10-05T06:51:43.585Z,8.33
2022-10-05T06:55:11.866Z,8.45
2022-10-05T06:58:13.290Z,8.51
2022-10-05T07:00:54.600Z,8.51
2022-10-05T07:03:34.128Z,8.53
2022-10-05T07:06:11.982Z,8.56
2022-10-05T07:09:12.087Z,8.72
2022-10-05T07:12:04.442Z,8.73
2022-10-05T07:15:03.179Z,8.77
2022-10-05T07:17:45.595Z,8.70
2022-10-05T07:21:08.350Z,8.79
2022-10-05T07:23:44.580Z,8.94
2022-10-05T07:26:32.489Z,8.84
2022-10-05T07:29:34.078Z,9.10
2022-10-05T07:32:05.160Z,9.02
2022-10-05T07:34:55.856Z,9.02
2022-10-05T07:37:57.427Z,9.20
2022-10-05T07:40:49.123Z,9.19
2022-10-05T07:44:07.746Z,9.33
2022-10-05T07:46:56.856Z,9.38
2022-10-05T07:49:36.949Z,9.34
2022-10-05T07:52:24.930Z,9.49
2022-10-05T07:55:26.367Z,9.58
2022-10-05T07:58:18.805Z,9.71
2022-10-05T08:01:11.189Z,9.86
2022-10-05T08:04:12.503Z,9.90
2022-10-05T08:06:43.584Z,9.92
2022-10-05T08:09:23.260Z,10.03
2022-10-05T08:12:31.877Z,10.11
2022-10-05T08:15:21.985Z,10.31
2022-10-05T08:17:55.986Z,10.39
2022-10-05T08:20:34.886Z,10.62
2022-10-05T08:23:34.137Z,10.61
2022-10-05T08:26:29.213Z,10.55
2022-10-05T08:29:56.167Z,10.55
2022-10-05T08:32:30.832Z,10.64
2022-10-05T08:35:23.313Z,10.77
2022-10-05T08:37:52.650Z,10.86
2022-10-05T08:40:33.633Z,11.03
2022-10-05T08:43:17.454Z,11.27
2022-10-05T08:45:54.296Z,11.57
2022-10-05T08:49:02.379Z,11.92
2022-10-05T08:52:12.227Z,12.20
2022-10-05T08:55:35.086Z,12.06
2022-10-05T08:58:33.334Z,12.41
2022-10-05T09:01:04.146Z,12.67
2022-10-05T09:03:57.071Z,12.75
2022-10-05T09:06:51.349Z,12.99
2022-10-05T09:09:51.149Z,13.29
2022-10-05T09:12:27.913Z,13.32
2022-10-05T09:15:26.312Z,13.56
2022-10-05T09:18:09.627Z,13.57
2022-10-05T09:20:37.390Z,13.54
2022-10-05T09:23:43.015Z,13.60
2022-10-05T09:26:51.676Z,13.66
2022-10-05T09:29:43.769Z,13.73
2022-10-05T09:32:45.948Z,14.09
2022-10-05T09:35:38.519Z,14.26
2022-10-05T09:38:38.692Z,14.55
2022-10-05T09:41:48.263Z,14.72
2022-10-05T09:44:47.254Z,15.16
2022-10-05T09:47:38.222Z,15.32
2022-10-05T09:50:37.986Z,15.01
2022-10-05T09:53:27.297Z,15.10
2022-10-05T09:56:13.250Z,15.30
2022-10-05T09:59:11.887Z,15.62
2022-10-05T10:01:57.851Z,16.06
2022-10-05T10:04:53.640Z,16.47
2022-10-05T10:07:58.535Z,16.70
2022-10-05T10:10:53.568Z,16.99
2022-10-05T10:13:30.469Z,17.37
2022-10-05T10:16:37.995Z,17.50
2022-10-05T10:19:35.870Z,17.37
2022-10-05T10:22:19.913Z,17.94
2022-10-05T10:25:19.638Z,17.90
2022-10-05T10:28:02.719Z,18.05
2022-10-05T10:31:18.050Z,18.38
2022-10-05T10:34:41.490Z,18.40
2022-10-05T10:37:39.547Z,18.88
2022-10-05T10:40:23.391Z,19.21
2022-10-05T10:43:28.476Z,19.25
2022-10-05T10:46:33.842Z,19.33
2022-10-05T10:49:36.891Z,19.24
2022-10-05T10:52:53.879Z,19.33
2022-10-05T10:55:30.946Z,19.83
2022-10-05T10:58:56.269Z,19.87
2022-10-05T11:01:34.624Z,20.27
2022-10-05T11:04:36.568Z,20.50
2022-10-05T11:07:23.142Z,20.53
2022-10-05T11:10:31.341Z,20.71
2022-10-05T11:13:07.983Z,20.41
2022-10-05T11:15:56.932Z,20.34
2022-10-05T11:18:24.767Z,20.45
2022-10-05T11:21:16.657Z,20.44
2022-10-05T11:24:19.652Z,20.57
2022-10-05T11:27:44.204Z,20.83
2022-10-05T11:30:23.054Z,20.77
2022-10-05T11:33:28.305Z,21.57
2022-10-05T11:36:34.264Z,21.43
2022-10-05T11:39:42.511Z,21.75
2022-10-05T11:42:50.593Z,21.71
2022-10-05T11:45:26.121Z,21.79
2022-10-05T11:48:24.579Z,21.87
2022-10-05T11:51:28.466Z,21.69
2022-10-05T11:54:09.486Z,22.02
2022-10-05T11:56:42.026Z,22.28
2022-10-05T11:59:16.211Z,22.16
2022-10-05T12:02:00.153Z,22.49
2022-10-05T12:05:11.382Z,22.46
2022-10-05T12:08:28.933Z,22.64
2022-10-05T12:11:22.861Z,22.51
2022-10-05T12:14:03.725Z,22.46
2022-10-05T12:17:16.970Z,22.76
2022-10-05T12:19:56.601Z,23.09
2022-10-05T12:22:51.533Z,22.96
2022-10-05T12:25:33.506Z,22.85
2022-10-05T12:28:12.434Z,22.97
2022-10-05T12:31:14.628Z,23.37
2022-10-05T12:34:05.402Z,23.39
2022-10-05T12:37:08.263Z,23.60
2022-10-05T12:40:05.419Z,23.54
2022-10-05T12:42:59.983Z,23.78
2022-10-05T12:45:40.166Z,23.70
2022-10-05T12:48:58.147Z,24.14
2022-10-05T12:51:57.995Z,23.92
2022-10-05T12:54:41.563Z,24.25
2022-10-05T12:57:35.093Z,23.91
2022-10-05T13:00:17.738Z,24.04
2022-10-05T13:02:51.344Z,24.12
2022-10-05T13:05:38.016Z,24.23
2022-10-05T13:08:43.383Z,24.47
2022-10-05T13:11:33.507Z,24.06
2022-10-05T13:14:13.486Z,24.26
2022-10-05T13:17:23.733Z,24.16
2022-10-05T13:20:07.766Z,23.85
2022-10-05T13:22:49.253Z,23.82
2022-10-05T13:25:31.407Z,23.89
2022-10-05T13:28:02.156Z,24.16
2022-10-05T13:30:31.180Z,24.16
2022-10-05T13:33:25.694Z,24.22
2022-10-05T13:36:05.542Z,24.06
2022-10-05T13:39:11.611Z,24.58
2022-10-05T13:41:51.938Z,24.31
2022-10-05T13:44:58.822Z,24.14
2022-10-05T13:48:00.921Z,24.33
2022-10-05T13:50:45.866Z,24.38
2022-10-05T13:53:28.150Z,24.15
2022-10-05T13:56:00.418Z,24.21
2022-10-05T13:59:05.261Z,24.32
2022-10-05T14:01:53.650Z,24.57
2022-10-05T14:04:27.515Z,24.61
2022-10-05T14:06:57.453Z,24.26
2022-10-05T14:09:30.632Z,24.61
2022-10-05T14:12:04.435Z,24.35
2022-10-05T14:14:43.953Z,24.39
2022-10-05T14:17:37.441Z,24.23
2022-10-05T14:20:34.311Z,24.31
2022-10-05T14:23:24.701Z,24.13
2022-10-05T14:25:54.230Z,24.05
2022-10-05T14:28:31.463Z,23.97
2022-10-05T14:31:16.559Z,24.11
2022-10-05T14:33:45.011Z,23.97
2022-10-05T14:36:16.785Z,23.56
2022-10-05T14:38:55.223Z,23.82
2022-10-05T14:41:27.570Z,24.08
2022-10-05T14:44:13.690Z,23.98
2022-10-05T14:47:04.725Z,24.03
2022-10-05T14:49:37.077Z,24.03
2022-10-05T14:52:34.814Z,23.81
2022-10-05T14:55:43.787Z,23.74
2022-10-05T14:58:44.425Z,23.86
2022-10-05T15:01:52.528Z,23.41
2022-10-05T15:04:43.218Z,23.39
2022-10-05T15:07:31.109Z,23.43
2022-10-05T15:10:51.333Z,23.43
2022-10-05T15:13:24.276Z,23.34
2022-10-05T15:16:25.440Z,23.39
2022-10-05T15:19:16.749Z,23.62
2022-10-05T15:22:26.309Z,23.25
2022-10-05T15:25:16.138Z,23.36
2022-10-05T15:27:56.518Z,23.39
2022-10-05T15:30:24.630Z,23.25
2022-10-05T15:33:27.769Z,23.18
2022-10-05T15:36:04.686Z,23.04
2022-10-05T15:39:16.457Z,23.09
2022-10-05T15:42:08.127Z,23.16
2022-10-05T15:45:11.626Z,22.94
2022-10-05T15:48:03.724Z,22.79
2022-10-05T15:51:07.136Z,22.77
2022-10-05T15:53:55.357Z,22.75
2022-10-05T15:56:41.070Z,22.85
2022-10-05T15:59:46.126Z,22.69
2022-10-05T16:02:29.163Z,22.65
2022-10-05T16:05:20.065Z,22.47
2022-10-05T16:08:12.412Z,22.31
2022-10-05T16:10:47.510Z,22.14
2022-10-05T16:13:46.831Z,21.97
2022-10-05T16:16:47.717Z,21.86
2022-10-05T16:19:35.768Z,21.62
2022-10-05T16:22:25.182Z,21.64
2022-10-05T16:25:05.074Z,21.55
2022-10-05T16:27:47.983Z,21.60
2022-10-05T16:30:22.635Z,21.76
2022-10-05T16:33:02.508Z,21.51
2022-10-05T16:35:53.647Z,21.72
2022-10-05T16:39:06.731Z,21.34
2022-10-05T16:42:06.428Z,21.57
2022-10-05T16:44:55.580Z,21.52
2022-10-05T16:48:13.342Z,21.42
2022-10-05T16:50:59.011Z,21.14
2022-10-05T16:53:44.511Z,20.88
2022-10-05T16:56:18.425Z,20.85
2022-10-05T16:59:11.460Z,20.81
2022-10-05T17:02:31.625Z,20.31
2022-10-05T17:05:39.982Z,19.54
2022-10-05T17:08:45.710Z,19.07
2022-10-05T17:11:35.423Z,18.88
2022-10-05T17:14:11.520Z,18.74
2022-10-05T17:17:17.970Z,19.03
2022-10-05T17:20:10.096Z,18.64
2022-10-05T17:22:51.595Z,18.16
2022-10-05T17:25:57.360Z,18.34
2022-10-05T17:29:16.677Z,18.35
2022-10-05T17:32:30.664Z,18.16
2022-10-05T17:35:01.767Z,18.40
2022-10-05T17:38:17.239Z,18.04
2022-10-05T17:41:12.025Z,17.81
2022-10-05T17:44:20.535Z,17.69
2022-10-05T17:46:53.239Z,17.64
2022-10-05T17:50:08.609Z,17.57
2022-10-05T17:53:00.013Z,17.47
2022-10-05T17:55:45.307Z,17.15
2022-10-05T17:58:29.493Z,17.43
2022-10-05T18:00:58.555Z,17.50
2022-10-05T18:03:52.864Z,17.60
2022-10-05T18:06:37.987Z,17.44
2022-10-05T18:09:20.593Z,17.41
2022-10-05T18:12:17.047Z,17.24
2022-10-05T18:15:07.036Z,17.27
2022-10-05T18:18:00.909Z,17.10
2022-10-05T18:20:32.605Z,17.11
2022-10-05T18:23:03.619Z,17.07
2022-10-05T18:26:08.194Z,17.30
2022-10-05T18:29:14.063Z,17.19
2022-10-05T18:32:01.159Z,17.27
2022-10-05T18:34:41.816Z,17.16
2022-10-05T18:37:56.176Z,17.30
2022-10-05T18:40:34.566Z,17.31
2022-10-05T18:43:40.803Z,17.48
2022-10-05T18:46:46.563Z,17.17
2022-10-05T18:50:00.572Z,17.19
2022-10-05T18:53:00.740Z,17.05
2022-10-05T18:55:58.887Z,17.16
2022-10-05T18:59:37.020Z,17.20
2022-10-05T19:02:18.279Z,17.16
2022-10-05T19:05:46.518Z,17.06
2022-10-05T19:08:32.998Z,17.08
2022-10-05T19:11:12.417Z,17.16
2022-10-05T19:14:32.147Z,16.95
2022-10-05T19:17:14.961Z,17.03
2022-10-05T19:20:05.955Z,16.85
2022-10-05T19:22:54.197Z,16.94
2022-10-05T19:26:03.438Z,16.81
2022-10-05T19:29:08.500Z,16.84
2022-10-05T19:31:38.943Z,16.97
2022-10-05T19:34:56.230Z,16.80
2022-10-05T19:37:51.815Z,16.87
2022-10-05T19:41:27.949Z,16.66
2022-10-05T19:44:56.830Z,16.72
2022-10-05T19:48:15.337Z,16.53
2022-10-05T19:50:58.592Z,16.39
2022-10-05T19:53:49.909Z,16.31
2022-10-05T19:56:21.710Z,16.09
2022-10-05T19:58:52.003Z,16.26
2022-10-05T20:01:27.552Z,16.25
2022-10-05T20:03:55.510Z,16.37
2022-10-05T20:06:23.614Z,16.38
2022-10-05T20:08:53.763Z,16.20
2022-10-05T20:11:27.391Z,16.27
2022-10-05T20:13:55.312Z,16.13
2022-10-05T20:19:47.105Z,16.32
2022-10-05T20:22:38.076Z,16.26
2022-10-05T20:25:19.384Z,16.39
2022-10-05T20:27:58.067Z,16.10
2022-10-05T20:30:29.057Z,16.13
2022-10-05T20:32:59.617Z,16.10
2022-10-05T20:35:30.625Z,16.32
2022-10-05T20:38:02.021Z,16.35
2022-10-05T20:40:30.653Z,16.43
2022-10-05T20:42:59.038Z,16.29
2022-10-05T20:45:26.965Z,16.08
2022-10-05T20:47:55.029Z,16.00
2022-10-05T20:50:22.857Z,16.19
2022-10-05T20:52:50.793Z,16.16
2022-10-05T20:55:18.570Z,16.25
2022-10-05T20:57:47.385Z,16.29
2022-10-05T21:00:15.339Z,16.47
2022-10-05T21:02:43.178Z,16.44
2022-10-05T21:05:10.984Z,16.50
2022-10-05T21:07:38.906Z,16.40
2022-10-05T21:10:07.194Z,16.68
2022-10-05T21:12:34.959Z,16.64
2022-10-05T21:15:06.207Z,16.66
2022-10-05T21:17:34.693Z,16.54
2022-10-05T21:20:02.530Z,16.54
2022-10-05T21:22:30.357Z,16.65
2022-10-05T21:24:58.474Z,16.57
2022-10-05T21:27:26.286Z,16.14
2022-10-05T21:29:54.169Z,16.00
2022-10-05T21:32:21.932Z,16.12
2022-10-05T21:34:50.139Z,16.13
2022-10-05T21:37:19.841Z,16.19
2022-10-05T21:39:47.578Z,16.86
2022-10-05T21:42:15.399Z,17.40
2022-10-05T21:44:43.178Z,17.19
2022-10-05T21:47:11.006Z,17.23
2022-10-05T21:49:38.822Z,17.31
2022-10-05T21:52:06.651Z,17.36
2022-10-05T21:54:35.117Z,17.50
2022-10-05T21:57:03.361Z,17.35
2022-10-05T21:59:33.327Z,17.18
2022-10-05T22:02:02.389Z,17.20
2022-10-05T22:04:30.117Z,16.85
2022-10-05T22:06:58.084Z,16.89
2022-10-05T22:09:25.941Z,17.05
2022-10-05T22:11:54.897Z,16.92
2022-10-05T22:14:22.776Z,16.91
2022-10-05T22:16:50.601Z,16.79
2022-10-05T22:19:20.112Z,16.82
2022-10-05T22:21:47.874Z,16.77
2022-10-05T22:24:15.676Z,16.67
2022-10-05T22:26:47.376Z,16.70
2022-10-05T22:29:17.002Z,16.80
2022-10-05T22:31:48.662Z,16.53
2022-10-05T22:34:18.430Z,16.46
2022-10-05T22:36:47.555Z,16.16
2022-10-05T22:39:17.070Z,15.85
2022-10-05T22:41:45.122Z,15.74
2022-10-05T22:44:12.936Z,15.76
2022-10-05T22:46:40.860Z,15.94
2022-10-05T22:49:09.307Z,15.89
2022-10-05T22:51:37.092Z,15.78
2022-10-05T22:54:05.305Z,15.77
2022-10-05T22:56:33.394Z,15.77
2022-10-05T22:59:01.376Z,15.84
2022-10-05T23:01:29.231Z,16.05
2022-10-05T23:03:57.381Z,16.00
2022-10-05T23:06:28.253Z,15.96
2022-10-05T23:08:56.680Z,15.84
2022-10-05T23:11:30.202Z,15.81
2022-10-05T23:13:58.758Z,15.79
2022-10-05T23:16:28.816Z,15.73
2022-10-05T23:18:56.897Z,15.82
2022-10-05T23:21:28.874Z,15.74
2022-10-05T23:23:56.718Z,15.55
2022-10-05T23:26:26.520Z,15.31
2022-10-05T23:28:54.389Z,15.18
2022-10-05T23:31:29.301Z,15.06
2022-10-05T23:33:57.188Z,15.10
2022-10-05T23:36:28.410Z,15.03
2022-10-05T23:38:56.159Z,14.94
2022-10-05T23:41:24.965Z,14.89
2022-10-05T23:43:55.209Z,14.80
2022-10-05T23:46:23.319Z,14.80
2022-10-05T23:48:53.144Z,14.75
2022-10-05T23:51:20.967Z,14.63
2022-10-05T23:53:48.682Z,14.52
2022-10-05T23:56:16.496Z,14.35
2022-10-05T23:58:45.022Z,14.25
